Time;durP1;ratioP1;P1;durP2;ratioP2;P2;SDS_P1;SDS_P2;PMS_P1;PMS_P2;Temp;Humidity;BMP_temperature;BMP_pressure;BME280_temperature;BME280_humidity;BME280_pressure;Samples;Min_cycle;Max_cycle;Signal;HPM_P1;HPM_P2
2022/02/01 00:03:47;;;;;;;6.72;2.67;;;;;;;-5.45;80.72;95523.13;4960293;28;20198;-57
2022/02/01 00:06:20;;;;;;;15.07;3.07;;;;;;;-5.36;80.38;95517.41;4960504;28;20099;-58
2022/02/01 00:09:07;;;;;;;8.80;2.72;;;;;;;-5.57;81.26;95521.16;4961781;28;20790;-57
2022/02/01 00:11:42;;;;;;;13.25;3.55;;;;;;;-5.51;80.95;95526.00;4963601;28;20107;-58
2022/02/01 00:14:27;;;;;;;21.02;3.88;;;;;;;-5.60;81.34;95527.34;4964662;28;20158;-57
2022/02/01 00:38:14;;;;;;;39.08;7.10;;;;;;;-6.22;82.94;95548.63;4964650;28;20075;-57
2022/02/01 00:40:39;;;;;;;28.30;4.53;;;;;;;-5.93;81.61;95541.97;4964020;28;20576;-58
2022/02/01 00:43:08;;;;;;;34.55;6.50;;;;;;;-5.86;81.06;95545.09;4964255;28;20322;-57
2022/02/01 00:45:33;;;;;;;27.23;5.07;;;;;;;-5.83;81.46;95546.69;4964022;28;20079;-58
2022/02/01 00:47:59;;;;;;;31.08;5.68;;;;;;;-5.90;81.09;95552.19;4958901;28;20202;-58
2022/02/01 00:50:24;;;;;;;23.00;5.15;;;;;;;-5.85;80.73;95547.59;4962968;28;20122;-57
2022/02/01 00:52:50;;;;;;;29.23;5.90;;;;;;;-5.98;80.37;95560.34;4962556;28;20115;-58
2022/02/01 00:55:15;;;;;;;28.55;6.38;;;;;;;-6.11;79.89;95560.13;4949817;28;20150;-58
2022/02/01 00:57:40;;;;;;;27.27;4.68;;;;;;;-5.91;79.76;95554.88;4960619;28;20091;-58
2022/02/01 01:00:07;;;;;;;21.45;4.38;;;;;;;-5.79;79.60;95559.44;4955238;28;20098;-58
2022/02/01 01:02:33;;;;;;;32.20;4.93;;;;;;;-5.62;77.77;95581.06;4956643;28;20217;-58
2022/02/01 01:04:58;;;;;;;25.88;4.60;;;;;;;-5.67;78.46;95583.91;4958601;28;20560;-58
2022/02/01 01:07:24;;;;;;;20.75;4.45;;;;;;;-5.86;78.36;95587.44;4958223;28;20095;-58
2022/02/01 01:09:50;;;;;;;13.80;3.25;;;;;;;-5.67;78.65;95598.63;4958797;28;20103;-58
2022/02/01 01:12:16;;;;;;;29.42;5.78;;;;;;;-5.84;78.12;95592.53;4957471;28;20114;-58
2022/02/01 01:44:52;;;;;;;23.45;3.47;;;;;;;-5.39;74.43;95621.44;4960613;28;20591;-58
2022/02/01 01:53:32;;;;;;;31.23;5.00;;;;;;;-5.60;74.22;95647.53;4960650;28;20181;-58
2022/02/01 01:55:32;;;;;;;26.98;5.47;;;;;;;-5.78;74.47;95649.28;4957574;28;20111;-58
2022/02/01 01:57:58;;;;;;;21.50;4.30;;;;;;;-6.00;76.53;95678.03;4961912;28;20090;-58
2022/02/01 02:03:07;;;;;;;21.27;3.60;;;;;;;-6.13;76.60;95680.34;4961683;28;20222;-58
2022/02/01 02:05:32;;;;;;;18.25;3.97;;;;;;;-6.19;76.89;95686.66;4961635;28;20605;-58
2022/02/01 02:07:58;;;;;;;17.38;4.13;;;;;;;-6.33;77.44;95689.09;4961844;28;20107;-58
2022/02/01 02:10:29;;;;;;;29.48;4.70;;;;;;;-6.28;77.11;95682.75;4955780;28;20079;-58
2022/02/01 02:13:02;;;;;;;21.80;3.78;;;;;;;-6.04;76.51;95674.75;4957584;28;20091;-58
2022/02/01 02:15:39;;;;;;;29.70;5.80;;;;;;;-6.20;76.45;95653.88;4953920;28;20096;-58
2022/02/01 02:18:04;;;;;;;30.23;5.93;;;;;;;-6.31;77.25;95663.94;4963136;28;20078;-58
2022/02/01 02:20:46;;;;;;;17.20;4.18;;;;;;;-6.02;76.30;95672.06;4954173;28;20565;-58
2022/02/01 02:23:12;;;;;;;23.23;5.20;;;;;;;-6.32;77.58;95685.56;4962548;28;20103;-58
2022/02/01 02:25:38;;;;;;;23.95;4.35;;;;;;;-6.18;76.96;95671.97;4962182;28;20415;-58
2022/02/01 02:28:04;;;;;;;20.75;5.78;;;;;;;-6.09;76.15;95678.47;4962561;28;20193;-58
2022/02/01 02:30:29;;;;;;;26.98;6.38;;;;;;;-6.46;78.26;95673.25;4960650;28;20573;-58
2022/02/01 02:32:59;;;;;;;24.90;6.72;;;;;;;-6.46;78.65;95658.53;4962225;28;20149;-58
2022/02/01 02:35:29;;;;;;;31.63;7.03;;;;;;;-6.53;78.59;95667.50;4960907;28;20107;-58
2022/02/01 02:37:55;;;;;;;27.55;7.90;;;;;;;-6.29;77.52;95659.53;4962730;28;20146;-58
2022/02/01 02:40:41;;;;;;;32.08;9.23;;;;;;;-6.67;79.54;95663.81;4956535;28;20106;-58
2022/02/01 02:45:50;;;;;;;25.98;7.18;;;;;;;-6.19;77.88;95660.75;4982156;28;20141;-58
2022/02/01 02:48:15;;;;;;;20.05;6.75;;;;;;;-5.95;77.10;95675.22;4956624;28;20556;-58
2022/02/01 02:50:40;;;;;;;14.68;4.95;;;;;;;-5.75;76.06;95666.44;4966992;28;20110;-59
2022/02/01 02:53:06;;;;;;;22.50;6.35;;;;;;;-5.80;76.35;95655.47;4969013;28;20115;-59
2022/02/01 02:55:33;;;;;;;17.70;6.35;;;;;;;-6.04;77.52;95676.50;4968134;28;20111;-59
2022/02/01 02:57:58;;;;;;;18.40;5.75;;;;;;;-5.62;75.89;95664.09;4969200;28;20555;-59
2022/02/01 03:00:23;;;;;;;25.48;7.53;;;;;;;-5.96;77.51;95656.22;4955580;28;20115;-59
2022/02/01 03:02:49;;;;;;;24.27;5.47;;;;;;;-5.83;77.12;95673.75;4969024;28;20609;-59
2022/02/01 03:05:14;;;;;;;17.58;5.20;;;;;;;-5.54;75.63;95671.50;4957291;28;20651;-59
2022/02/01 03:07:40;;;;;;;15.70;4.93;;;;;;;-5.61;75.92;95679.59;4968057;28;20102;-58
2022/02/01 03:10:05;;;;;;;15.05;4.15;;;;;;;-5.57;76.65;95688.06;4968019;28;20545;-59
2022/02/01 03:12:55;;;;;;;9.23;3.33;;;;;;;-5.33;76.08;95700.75;4971500;28;20117;-59
2022/02/01 03:15:36;;;;;;;14.25;4.57;;;;;;;-5.22;76.36;95682.88;4968360;28;20122;-59
2022/02/01 03:20:45;;;;;;;7.57;2.75;;;;;;;-5.37;77.20;95673.25;4968813;28;20126;-59
2022/02/01 03:23:10;;;;;;;5.85;3.15;;;;;;;-5.11;75.87;95684.06;4968072;28;20561;-59
2022/02/01 03:25:36;;;;;;;9.90;3.15;;;;;;;-5.22;75.81;95702.78;4968703;28;20111;-59
2022/02/01 03:28:01;;;;;;;4.68;2.60;;;;;;;-5.05;76.53;95693.28;4967674;28;20528;-59
2022/02/01 03:30:27;;;;;;;6.68;2.97;;;;;;;-5.45;77.06;95684.00;4967888;28;20138;-59
2022/02/01 03:32:52;;;;;;;7.07;3.10;;;;;;;-5.17;76.95;95676.59;4968193;28;20803;-59
2022/02/01 03:35:18;;;;;;;10.25;4.10;;;;;;;-5.83;78.33;95671.19;4968220;28;20106;-58
2022/02/01 03:37:43;;;;;;;6.60;2.67;;;;;;;-5.80;79.48;95686.59;4962068;28;20115;-58
2022/02/01 03:40:14;;;;;;;9.75;3.30;;;;;;;-5.97;80.54;95689.06;4968069;28;20488;-58
2022/02/01 03:42:39;;;;;;;16.88;5.25;;;;;;;-5.77;78.51;95699.41;4974121;28;20115;-58
2022/02/01 03:45:05;;;;;;;13.50;3.75;;;;;;;-5.56;78.19;95694.09;4971607;28;20090;-58
2022/02/01 03:47:32;;;;;;;14.55;4.28;;;;;;;-5.61;77.87;95689.97;4957984;28;20121;-58
2022/02/01 03:49:59;;;;;;;18.30;5.38;;;;;;;-5.39;76.88;95707.06;4964857;28;20110;-59
2022/02/01 03:52:24;;;;;;;12.45;4.05;;;;;;;-5.24;76.47;95686.44;4954669;28;20265;-59
2022/02/01 03:54:49;;;;;;;12.88;4.50;;;;;;;-5.36;76.84;95680.94;4952278;28;20187;-59
2022/02/01 03:57:15;;;;;;;16.60;4.90;;;;;;;-5.34;76.92;95686.91;4965044;28;20093;-59
2022/02/01 03:59:43;;;;;;;18.95;6.45;;;;;;;-5.51;76.97;95671.34;4964251;28;20564;-59
2022/02/01 04:02:08;;;;;;;20.30;5.70;;;;;;;-5.55;77.17;95682.78;4964617;28;20151;-58
2022/02/01 04:04:34;;;;;;;12.70;5.25;;;;;;;-5.38;76.64;95687.97;4959386;28;20529;-58
2022/02/01 04:07:00;;;;;;;11.02;4.25;;;;;;;-5.48;77.21;95687.59;4955610;28;20564;-58
2022/02/01 04:09:26;;;;;;;16.15;6.63;;;;;;;-5.87;78.32;95692.06;4963884;28;20122;-58
2022/02/01 04:11:55;;;;;;;21.27;7.28;;;;;;;-6.04;79.26;95692.91;4964365;28;20114;-58
2022/02/01 04:14:24;;;;;;;12.70;6.13;;;;;;;-6.12;79.84;95693.25;4957100;28;20092;-58
2022/02/01 04:16:50;;;;;;;7.00;3.83;;;;;;;-6.06;80.42;95701.63;4964505;28;20796;-58
2022/02/01 04:19:15;;;;;;;16.92;5.97;;;;;;;-5.93;79.06;95697.56;4958500;28;20104;-58
2022/02/01 04:21:48;;;;;;;13.35;4.57;;;;;;;-5.84;78.91;95680.72;4957293;28;20090;-58
2022/02/01 04:24:14;;;;;;;15.75;5.35;;;;;;;-5.88;78.48;95692.16;4959398;28;20191;-58
2022/02/01 04:26:39;;;;;;;22.00;6.38;;;;;;;-6.09;79.53;95699.22;4956701;28;20099;-58
2022/02/01 04:29:05;;;;;;;14.88;5.80;;;;;;;-5.96;78.70;95718.44;4963635;28;20091;-58
2022/02/01 04:31:30;;;;;;;17.00;4.65;;;;;;;-6.14;79.97;95687.31;4966714;28;20098;-58
2022/02/01 04:33:55;;;;;;;9.75;3.95;;;;;;;-5.86;79.12;95682.53;4976593;28;20413;-58
2022/02/01 04:36:21;;;;;;;17.92;5.57;;;;;;;-5.94;78.24;95680.34;4952861;28;20103;-58
2022/02/01 04:38:56;;;;;;;13.65;4.72;;;;;;;-5.72;78.01;95663.72;4963488;28;20428;-58
2022/02/01 04:41:21;;;;;;;10.57;3.65;;;;;;;-5.31;76.35;95677.31;4955998;28;20082;-59
2022/02/01 04:43:47;;;;;;;14.35;3.80;;;;;;;-5.00;74.61;95684.34;4964197;28;20114;-58
2022/02/01 04:46:14;;;;;;;10.60;3.63;;;;;;;-5.13;75.54;95676.34;4950885;28;20083;-58
2022/02/01 04:48:39;;;;;;;13.60;4.30;;;;;;;-5.41;76.18;95671.75;4963891;28;20095;-58
2022/02/01 04:51:05;;;;;;;18.27;5.18;;;;;;;-6.08;78.26;95683.59;4950837;28;20109;-58
2022/02/01 04:53:30;;;;;;;12.10;3.72;;;;;;;-5.51;76.76;95660.94;4964198;28;20508;-59
2022/02/01 04:55:55;;;;;;;18.58;4.68;;;;;;;-5.81;77.99;95682.31;4950893;28;20107;-58
2022/02/01 04:58:24;;;;;;;19.27;5.72;;;;;;;-5.90;78.07;95676.69;4963762;28;20090;-58
2022/02/01 05:00:50;;;;;;;7.15;2.80;;;;;;;-5.66;77.84;95662.56;4956102;28;20102;-58
2022/02/01 05:03:15;;;;;;;12.25;4.03;;;;;;;-5.38;76.30;95648.19;4968380;28;20488;-59
2022/02/01 05:05:41;;;;;;;12.77;3.50;;;;;;;-5.44;76.75;95651.13;4963918;28;20091;-59
2022/02/01 05:08:08;;;;;;;9.63;3.38;;;;;;;-5.14;75.25;95648.69;4963944;28;20110;-59
2022/02/01 05:10:34;;;;;;;17.45;4.10;;;;;;;-5.78;76.66;95635.50;4962655;28;20169;-59
2022/02/01 05:15:44;;;;;;;11.63;3.90;;;;;;;-6.15;78.33;95657.09;4962790;28;20120;-58
2022/02/01 05:18:16;;;;;;;18.35;5.22;;;;;;;-6.12;78.19;95650.91;4950273;28;20084;-59
2022/02/01 05:20:53;;;;;;;14.60;5.45;;;;;;;-5.82;77.68;95678.06;4955684;28;20214;-58
2022/02/01 05:23:21;;;;;;;19.23;4.70;;;;;;;-5.28;75.95;95635.59;4963128;28;20133;-59
2022/02/01 05:25:46;;;;;;;13.82;4.75;;;;;;;-5.63;77.09;95659.81;4962772;28;20090;-59
2022/02/01 05:28:12;;;;;;;18.88;4.13;;;;;;;-5.81;78.63;95683.16;4976098;28;20111;-59
2022/02/01 05:30:37;;;;;;;9.75;3.80;;;;;;;-5.47;77.15;95678.06;4961094;28;20508;-59
2022/02/01 05:33:02;;;;;;;9.48;3.60;;;;;;;-5.62;77.92;95680.50;4963523;28;20083;-59
2022/02/01 05:35:29;;;;;;;16.25;5.65;;;;;;;-6.18;81.20;95667.59;4950010;28;20104;-58
2022/02/01 05:37:54;;;;;;;9.60;4.13;;;;;;;-5.66;80.82;95676.38;4963450;28;20252;-58
2022/02/01 05:40:20;;;;;;;14.82;4.22;;;;;;;-5.37;78.78;95683.63;4953200;28;20126;-59
2022/02/01 05:42:57;;;;;;;11.10;4.38;;;;;;;-5.44;77.72;95685.69;4963032;28;20118;-58
2022/02/01 05:45:22;;;;;;;7.53;3.63;;;;;;;-5.08;76.66;95687.34;4952452;28;20441;-59
2022/02/01 05:47:48;;;;;;;12.73;4.30;;;;;;;-5.02;76.68;95690.53;4948021;28;20134;-59
2022/02/01 05:50:14;;;;;;;4.25;2.83;;;;;;;-4.64;74.45;95687.69;4960082;28;20087;-59
2022/02/01 05:52:39;;;;;;;37.85;5.65;;;;;;;-5.36;76.64;95701.72;4962873;28;20520;-59
2022/02/01 05:55:05;;;;;;;13.60;4.38;;;;;;;-5.24;76.29;95721.03;4953556;28;20170;-59
2022/02/01 05:57:30;;;;;;;7.30;3.25;;;;;;;-5.51;77.48;95731.00;4959097;28;20090;-59
2022/02/01 05:59:55;;;;;;;25.02;4.55;;;;;;;-5.31;76.99;95717.06;4961672;28;20107;-59
2022/02/01 06:02:21;;;;;;;9.13;3.83;;;;;;;-5.47;77.81;95727.38;4962366;28;20086;-59
2022/02/01 06:04:46;;;;;;;9.75;4.90;;;;;;;-5.74;78.57;95718.25;4960419;28;20083;-59
2022/02/01 06:07:12;;;;;;;11.32;3.53;;;;;;;-5.87;79.34;95710.22;4969823;28;20198;-59
2022/02/01 06:09:37;;;;;;;22.95;4.28;;;;;;;-5.59;78.51;95705.47;4961261;28;20541;-59
2022/02/01 06:12:03;;;;;;;9.18;4.22;;;;;;;-5.45;77.62;95720.34;4962357;28;20115;-59
2022/02/01 06:14:28;;;;;;;10.68;4.20;;;;;;;-5.80;79.07;95709.94;4959804;28;20107;-59
2022/02/01 06:16:53;;;;;;;10.20;3.63;;;;;;;-5.34;77.19;95699.88;4963056;28;20135;-59
2022/02/01 06:19:19;;;;;;;7.90;3.67;;;;;;;-5.55;78.59;95694.00;4956181;28;20103;-58
2022/02/01 06:21:44;;;;;;;9.63;3.63;;;;;;;-5.47;77.62;95678.06;4955523;28;20556;-58
2022/02/01 06:24:10;;;;;;;17.50;4.07;;;;;;;-5.73;78.96;95677.59;4957897;28;20104;-58
2022/02/01 06:26:35;;;;;;;12.13;3.47;;;;;;;-5.72;78.79;95692.25;4949869;28;20166;-58
2022/02/01 06:29:01;;;;;;;11.88;3.58;;;;;;;-5.60;77.80;95689.03;4962661;28;20205;-59
2022/02/01 06:31:26;;;;;;;11.95;3.60;;;;;;;-5.42;77.43;95670.88;4962212;28;20667;-59
2022/02/01 06:33:52;;;;;;;15.68;3.75;;;;;;;-5.71;78.35;95655.00;4955464;28;20094;-59
2022/02/01 06:36:17;;;;;;;8.65;3.47;;;;;;;-5.78;78.20;95651.88;4962525;28;20511;-59
2022/02/01 06:38:42;;;;;;;13.48;3.67;;;;;;;-5.76;78.42;95651.81;4961440;28;20366;-59
2022/02/01 06:41:08;;;;;;;12.88;3.60;;;;;;;-5.72;78.44;95651.59;4965291;28;20091;-58
2022/02/01 06:43:33;;;;;;;9.73;2.72;;;;;;;-5.51;77.78;95655.75;4963708;28;20113;-59
2022/02/01 06:45:59;;;;;;;7.18;2.30;;;;;;;-5.24;77.01;95657.88;4961662;28;20452;-58
2022/02/01 06:48:25;;;;;;;14.35;3.63;;;;;;;-5.30;76.69;95640.84;4956537;28;20115;-59
2022/02/01 06:50:52;;;;;;;12.10;2.30;;;;;;;-4.85;75.63;95646.31;4950051;28;20114;-59
2022/02/01 06:53:19;;;;;;;9.60;3.25;;;;;;;-4.70;74.73;95649.03;4959401;28;20488;-59
2022/02/01 06:55:57;;;;;;;13.77;3.78;;;;;;;-5.05;75.26;95656.94;4963411;28;20585;-59
2022/02/01 06:58:22;;;;;;;8.98;2.90;;;;;;;-5.48;77.08;95653.00;4961327;28;20145;-59
2022/02/01 07:00:47;;;;;;;8.00;2.90;;;;;;;-5.59;77.95;95645.78;4968594;28;20581;-59
2022/02/01 07:03:13;;;;;;;5.75;2.47;;;;;;;-5.39;77.34;95644.78;4964454;28;20584;-58
2022/02/01 07:05:38;;;;;;;8.90;3.22;;;;;;;-5.53;76.78;95649.81;4967163;28;20122;-58
2022/02/01 07:08:04;;;;;;;10.57;3.00;;;;;;;-5.43;77.40;95645.00;4948853;28;20111;-58
2022/02/01 07:10:29;;;;;;;8.02;2.97;;;;;;;-5.14;76.68;95653.03;4955634;28;20106;-58
2022/02/01 07:12:55;;;;;;;9.27;3.28;;;;;;;-5.23;76.88;95657.78;4962723;28;20130;-58
2022/02/01 07:15:20;;;;;;;10.75;3.17;;;;;;;-5.13;76.14;95658.16;4959322;28;20099;-58
2022/02/01 07:17:50;;;;;;;10.63;3.60;;;;;;;-5.11;76.32;95652.91;4956289;28;20162;-58
2022/02/01 07:20:16;;;;;;;5.40;2.35;;;;;;;-5.02;75.76;95661.97;4961866;28;20487;-59
2022/02/01 07:22:43;;;;;;;13.20;3.70;;;;;;;-5.18;76.27;95654.97;4964022;28;20110;-59
2022/02/01 07:25:52;;;;;;;16.30;4.22;;;;;;;-5.45;76.56;95663.25;4968415;28;20137;-59
2022/02/01 07:28:02;;;;;;;22.13;4.47;;;;;;;-5.31;76.55;95661.72;4959676;28;20489;-59
2022/02/01 07:30:28;;;;;;;7.75;3.22;;;;;;;-5.47;77.42;95644.34;4975314;28;20145;-58
2022/02/01 07:32:57;;;;;;;11.45;3.85;;;;;;;-5.27;76.66;95640.69;4968499;28;20697;-58
2022/02/01 07:35:25;;;;;;;9.02;3.50;;;;;;;-4.88;75.20;95627.47;4964558;28;20107;-59
2022/02/01 07:37:50;;;;;;;10.95;3.65;;;;;;;-4.72;74.35;95638.72;4967839;28;20508;-59
2022/02/01 07:40:16;;;;;;;10.68;3.35;;;;;;;-4.56;74.31;95641.34;4974142;28;20114;-59
2022/02/01 07:42:41;;;;;;;6.97;2.88;;;;;;;-4.44;72.82;95633.78;4967229;28;20111;-59
2022/02/01 07:45:08;;;;;;;7.47;2.90;;;;;;;-4.54;73.31;95650.81;4964125;28;20083;-59
2022/02/01 07:47:34;;;;;;;12.57;3.63;;;;;;;-4.92;73.98;95645.00;4961253;28;20116;-59
2022/02/01 07:49:59;;;;;;;8.85;3.17;;;;;;;-4.74;72.96;95652.72;4964993;28;20091;-59
2022/02/01 07:52:24;;;;;;;9.88;3.15;;;;;;;-4.49;72.67;95654.84;4965355;28;20111;-58
2022/02/01 07:54:50;;;;;;;9.32;2.80;;;;;;;-4.61;73.23;95671.94;4963657;28;20103;-58
2022/02/01 07:57:15;;;;;;;6.30;2.67;;;;;;;-4.25;71.61;95641.41;4960955;28;20094;-58
2022/02/01 07:59:41;;;;;;;10.38;2.60;;;;;;;-3.97;70.21;95652.03;4965451;28;20103;-58
2022/02/01 08:02:17;;;;;;;12.88;3.22;;;;;;;-3.96;68.53;95645.91;4961426;28;20119;-58
2022/02/01 08:04:42;;;;;;;7.18;2.50;;;;;;;-3.58;68.78;95626.41;4964713;28;20134;-58
2022/02/01 08:07:08;;;;;;;11.65;3.58;;;;;;;-3.33;67.20;95628.41;4948338;28;20107;-59
2022/02/01 08:09:37;;;;;;;8.65;2.75;;;;;;;-3.85;66.18;95625.31;4952800;28;20108;-59
2022/02/01 08:12:10;;;;;;;7.68;2.85;;;;;;;-3.19;66.32;95639.78;4948250;28;20725;-58
2022/02/01 08:17:20;;;;;;;17.17;3.47;;;;;;;-3.27;66.62;95622.84;4964901;28;20075;-59
2022/02/01 08:22:32;;;;;;;8.00;2.78;;;;;;;-3.85;68.19;95637.47;4959957;28;20387;-57
2022/02/01 08:24:58;;;;;;;13.50;4.28;;;;;;;-3.44;67.44;95625.59;4959153;28;20071;-58
2022/02/01 08:27:23;;;;;;;10.45;3.38;;;;;;;-3.10;66.47;95620.97;4953248;28;20157;-58
2022/02/01 08:29:49;;;;;;;11.70;2.67;;;;;;;-2.98;66.05;95626.38;4959732;28;20095;-58
2022/02/01 08:32:14;;;;;;;10.65;2.95;;;;;;;-3.09;63.41;95604.41;4960020;28;20551;-58
2022/02/01 08:34:39;;;;;;;10.43;2.92;;;;;;;-3.63;67.08;95616.28;4954568;28;20099;-58
2022/02/01 08:37:05;;;;;;;11.68;3.28;;;;;;;-3.08;66.33;95613.94;4970770;28;20440;-58
2022/02/01 08:39:31;;;;;;;14.68;2.78;;;;;;;-2.81;65.60;95614.94;4959292;28;20114;-58
2022/02/01 08:41:56;;;;;;;6.82;2.50;;;;;;;-2.90;65.72;95609.34;4970008;28;20082;-59
2022/02/01 08:44:29;;;;;;;7.80;2.70;;;;;;;-2.73;64.13;95602.25;4965510;28;20099;-59
2022/02/01 08:46:55;;;;;;;14.57;2.97;;;;;;;-2.56;63.13;95595.16;4967200;28;20137;-59
2022/02/01 08:49:20;;;;;;;16.10;4.50;;;;;;;-2.07;61.84;95598.19;4973184;28;20574;-59
2022/02/01 08:51:56;;;;;;;9.50;3.15;;;;;;;-2.08;62.09;95586.06;4955084;28;20114;-58
2022/02/01 08:54:22;;;;;;;11.85;3.17;;;;;;;-2.43;63.04;95584.78;4961879;28;20358;-58
2022/02/01 08:59:32;;;;;;;9.68;3.20;;;;;;;-2.82;64.30;95575.00;4957740;28;20106;-58
2022/02/01 09:01:57;;;;;;;9.07;3.00;;;;;;;-3.16;64.99;95584.91;4967132;28;20087;-59
2022/02/01 09:04:23;;;;;;;11.18;3.15;;;;;;;-2.93;64.27;95577.44;4959281;28;20103;-59
2022/02/01 09:06:48;;;;;;;12.35;3.50;;;;;;;-2.69;64.50;95572.47;4968007;28;20107;-59
2022/02/01 09:09:13;;;;;;;11.98;3.42;;;;;;;-2.87;64.27;95569.25;4955460;28;20117;-59
2022/02/01 09:11:39;;;;;;;17.40;3.53;;;;;;;-3.60;66.15;95561.41;4957144;28;20114;-59
2022/02/01 09:14:04;;;;;;;10.50;4.88;;;;;;;-2.65;64.47;95541.84;4960513;28;20126;-59
2022/02/01 09:16:30;;;;;;;11.10;2.95;;;;;;;-2.30;62.13;95548.31;4949501;28;20087;-59
2022/02/01 09:18:55;;;;;;;5.22;2.40;;;;;;;-2.46;63.41;95541.50;4955436;28;20449;-59
2022/02/01 09:21:21;;;;;;;12.02;3.72;;;;;;;-2.82;63.27;95543.72;4962222;28;20158;-58
2022/02/01 09:23:46;;;;;;;13.52;3.70;;;;;;;-3.02;65.13;95542.38;4944930;28;20163;-58
2022/02/01 09:26:11;;;;;;;12.52;5.45;;;;;;;-3.16;65.50;95545.84;4956664;28;20816;-71
2022/02/01 09:28:37;;;;;;;16.27;4.97;;;;;;;-3.76;66.35;95545.03;4960267;28;20191;-72
2022/02/01 09:31:03;;;;;;;8.10;3.17;;;;;;;-2.95;64.90;95535.81;4955160;28;20122;-71
2022/02/01 09:33:29;;;;;;;13.45;3.72;;;;;;;-2.93;65.24;95520.94;4959061;28;20087;-71
2022/02/01 09:35:55;;;;;;;8.05;3.10;;;;;;;-3.35;67.96;95520.06;4958232;28;20134;-72
2022/02/01 09:38:20;;;;;;;16.52;5.88;;;;;;;-3.61;67.76;95525.06;4963772;28;20361;-70
2022/02/01 09:40:46;;;;;;;11.98;4.45;;;;;;;-3.74;70.18;95532.78;4961667;28;20457;-70
2022/02/01 09:43:14;;;;;;;6.90;3.20;;;;;;;-2.76;66.99;95527.72;4963692;28;20117;-70
2022/02/01 09:45:39;;;;;;;12.23;3.97;;;;;;;-3.59;69.90;95513.66;4960934;28;20260;-71
2022/02/01 09:48:05;;;;;;;11.68;4.60;;;;;;;-3.18;70.03;95500.81;4947957;28;20396;-72
2022/02/01 09:50:31;;;;;;;11.38;4.80;;;;;;;-3.30;68.88;95505.00;4968512;28;20122;-69
2022/02/01 09:52:56;;;;;;;6.75;3.15;;;;;;;-3.16;69.99;95514.59;4948972;28;20115;-70
2022/02/01 09:55:22;;;;;;;9.60;4.10;;;;;;;-3.78;72.57;95493.94;4955632;28;20595;-70
2022/02/01 09:57:51;;;;;;;6.80;3.15;;;;;;;-3.57;73.11;95488.38;4959021;28;20087;-69
2022/02/01 10:00:21;;;;;;;9.75;3.50;;;;;;;-3.03;70.28;95492.03;4942194;28;20695;-70
2022/02/01 10:02:47;;;;;;;14.65;4.38;;;;;;;-3.30;71.70;95466.78;4958736;28;20639;-70
2022/02/01 10:05:14;;;;;;;8.93;3.05;;;;;;;-3.53;71.78;95482.03;4958808;28;20086;-71
2022/02/01 10:08:05;;;;;;;9.40;3.20;;;;;;;-3.41;70.65;95458.78;4954873;28;20103;-71
2022/02/01 10:10:31;;;;;;;6.40;3.10;;;;;;;-3.41;72.21;95466.59;4946032;28;20172;-69
2022/02/01 10:12:58;;;;;;;8.80;3.50;;;;;;;-3.55;71.00;95464.84;4961245;28;20792;-70
2022/02/01 10:15:26;;;;;;;9.25;3.38;;;;;;;-3.79;79.33;95455.84;4955461;28;20184;-70
2022/02/01 10:18:10;;;;;;;6.75;2.58;;;;;;;-3.17;71.33;95459.03;4959523;28;20111;-70
2022/02/01 10:20:41;;;;;;;5.97;2.75;;;;;;;-3.52;72.48;95444.66;4963569;28;20106;-71
2022/02/01 10:23:27;;;;;;;4.32;2.60;;;;;;;-3.50;71.11;95433.34;4958099;28;20134;-71
2022/02/01 10:26:05;;;;;;;9.40;3.50;;;;;;;-3.59;71.50;95416.50;4945337;28;20075;-69
2022/02/01 10:29:18;;;;;;;5.55;3.30;;;;;;;-3.94;73.99;95409.94;4945167;28;20714;-71
2022/02/01 10:31:49;;;;;;;7.68;4.25;;;;;;;-3.22;69.52;95395.16;4945538;28;20107;-70
2022/02/01 10:36:52;;;;;;;6.28;3.58;;;;;;;-3.76;73.31;95426.19;4956015;28;20467;-71
2022/02/01 10:39:25;;;;;;;4.30;2.92;;;;;;;-3.99;74.21;95417.16;4957367;28;20518;-68
2022/02/01 10:42:05;;;;;;;13.13;4.00;;;;;;;-4.92;75.83;95411.25;4957316;28;20093;-71
2022/02/01 10:44:38;;;;;;;6.22;3.30;;;;;;;-3.52;73.46;95405.63;4960904;28;20223;-70
2022/02/01 10:47:05;;;;;;;8.25;3.42;;;;;;;-3.98;73.84;95388.47;4961667;28;20109;-69
2022/02/01 10:49:32;;;;;;;5.05;2.30;;;;;;;-3.90;72.83;95385.41;4954909;28;20565;-72
2022/02/01 10:51:59;;;;;;;6.40;3.78;;;;;;;-3.76;71.79;95357.69;4943047;28;20117;-71
2022/02/01 10:54:25;;;;;;;5.07;3.83;;;;;;;-3.24;72.58;95350.97;4946026;28;20123;-71
2022/02/01 10:56:51;;;;;;;5.00;3.20;;;;;;;-2.92;70.89;95350.66;4955906;28;20146;-72
2022/02/01 10:59:16;;;;;;;5.90;3.45;;;;;;;-2.80;68.27;95345.56;4965222;28;20115;-70
2022/02/01 11:01:42;;;;;;;4.35;3.47;;;;;;;-3.92;73.02;95366.44;4968294;28;20118;-70
2022/02/01 11:04:09;;;;;;;7.15;3.67;;;;;;;-4.09;74.44;95347.53;4959166;28;20111;-71
2022/02/01 11:06:35;;;;;;;7.25;3.55;;;;;;;-3.29;70.37;95327.81;4961456;28;20795;-71
2022/02/01 11:09:00;;;;;;;25.48;3.92;;;;;;;-3.58;71.75;95325.31;4963321;28;20374;-70
2022/02/01 11:11:26;;;;;;;7.15;3.60;;;;;;;-3.42;71.61;95309.56;4961176;28;20106;-68
2022/02/01 11:13:51;;;;;;;3.85;2.70;;;;;;;-3.67;73.11;95302.50;4953747;28;20106;-70
2022/02/01 11:16:24;;;;;;;5.63;2.85;;;;;;;-3.76;72.57;95303.06;4957131;28;20305;-68
2022/02/01 11:19:04;;;;;;;14.85;3.85;;;;;;;-4.25;77.43;95303.41;4971829;28;20117;-68
2022/02/01 11:21:29;;;;;;;6.00;2.92;;;;;;;-3.66;74.88;95280.75;4961438;28;20107;-69
2022/02/01 11:24:00;;;;;;;9.15;3.65;;;;;;;-3.82;73.94;95284.31;4961070;28;20634;-68
2022/02/01 11:26:38;;;;;;;7.75;3.83;;;;;;;-4.15;74.60;95277.66;4961516;28;20348;-68
2022/02/01 11:31:41;;;;;;;19.23;4.35;;;;;;;-3.85;75.09;95265.44;4969092;28;20153;-69
2022/02/01 11:34:06;;;;;;;12.32;4.65;;;;;;;-3.54;72.88;95271.28;4945711;28;20083;-69
2022/02/01 11:36:39;;;;;;;20.13;5.65;;;;;;;-4.11;75.32;95276.53;4948537;28;20115;-71
2022/02/01 11:39:12;;;;;;;22.73;4.65;;;;;;;-3.78;74.10;95270.19;4963035;28;20114;-68
2022/02/01 11:41:42;;;;;;;7.95;3.45;;;;;;;-3.28;72.37;95256.59;4958749;28;20339;-69
2022/02/01 11:44:21;;;;;;;12.65;3.55;;;;;;;-3.56;72.52;95263.59;4962585;28;20209;-68
2022/02/01 11:47:17;;;;;;;6.22;3.28;;;;;;;-3.57;73.43;95248.09;4964352;28;20102;-70
2022/02/01 11:49:52;;;;;;;18.65;4.60;;;;;;;-3.63;73.25;95235.47;4958894;28;20544;-71
2022/02/01 11:52:18;;;;;;;10.48;3.30;;;;;;;-2.94;71.68;95229.22;4959179;28;20102;-70
2022/02/01 11:54:47;;;;;;;6.20;2.78;;;;;;;-3.62;73.84;95221.50;4976728;28;20331;-69
2022/02/01 11:57:26;;;;;;;131.82;7.53;;;;;;;-3.29;71.90;95210.66;4966118;28;20106;-71
2022/02/01 11:59:53;;;;;;;14.23;2.97;;;;;;;-2.72;71.14;95199.94;4956832;28;20153;-70
2022/02/01 12:02:49;;;;;;;9.65;3.10;;;;;;;-2.53;71.06;95199.53;4956535;28;20860;-71
2022/02/01 12:05:16;;;;;;;6.28;2.60;;;;;;;-2.93;71.16;95203.09;4948641;28;20118;-71
2022/02/01 12:08:01;;;;;;;4.70;2.65;;;;;;;-3.06;73.70;95202.25;4956522;28;20111;-71
2022/02/01 12:10:26;;;;;;;5.00;2.15;;;;;;;-2.07;70.06;95199.00;4966423;28;20220;-69
2022/02/01 12:12:57;;;;;;;8.30;2.65;;;;;;;-2.39;70.17;95200.31;4958620;28;20343;-70
2022/02/01 12:15:27;;;;;;;5.85;2.40;;;;;;;-2.43;69.69;95198.88;4966805;28;20099;-70
2022/02/01 12:17:57;;;;;;;8.27;2.70;;;;;;;-2.33;70.27;95214.69;4967142;28;21398;-68
2022/02/01 12:20:22;;;;;;;4.47;2.40;;;;;;;-2.58;71.70;95174.72;4955686;28;20103;-70
2022/02/01 12:23:04;;;;;;;12.95;3.25;;;;;;;-2.06;69.09;95179.78;4956070;28;20134;-71
2022/02/01 12:25:30;;;;;;;5.18;2.38;;;;;;;-2.34;69.55;95179.97;4962120;28;20075;-71
2022/02/01 12:27:55;;;;;;;18.67;2.97;;;;;;;-2.90;71.82;95170.78;4959340;28;20214;-69
2022/02/01 12:30:21;;;;;;;51.92;5.90;;;;;;;-2.96;71.79;95173.81;4963652;28;20096;-71
2022/02/01 12:32:54;;;;;;;10.80;2.50;;;;;;;-2.82;71.11;95183.28;4974950;28;20154;-71
2022/02/01 12:35:36;;;;;;;6.05;2.33;;;;;;;-2.77;71.18;95176.81;4972686;28;20208;-69
2022/02/01 12:38:13;;;;;;;6.05;2.33;;;;;;;-2.68;71.20;95166.69;4951282;28;20150;-69
2022/02/01 12:40:38;;;;;;;5.15;1.92;;;;;;;-2.86;73.33;95156.59;4959536;28;20099;-69
2022/02/01 12:43:11;;;;;;;15.07;2.78;;;;;;;-3.45;73.76;95173.56;4949177;28;20114;-71
2022/02/01 12:48:10;;;;;;;13.55;2.40;;;;;;;-3.27;74.56;95129.81;4962683;28;20094;-70
2022/02/01 12:50:36;;;;;;;4.40;2.00;;;;;;;-3.53;75.42;95142.84;4959682;28;20134;-70
2022/02/01 12:53:02;;;;;;;19.73;2.60;;;;;;;-4.04;77.58;95129.59;4960070;28;20110;-69
2022/02/01 12:55:28;;;;;;;1.90;1.65;;;;;;;-3.42;76.36;95122.13;4960061;28;20421;-70
2022/02/01 12:57:54;;;;;;;4.68;1.88;;;;;;;-3.50;75.35;95129.59;4966913;28;20181;-69
2022/02/01 13:00:21;;;;;;;3.20;1.60;;;;;;;-4.11;78.09;95122.31;4955420;28;20436;-68